Milesburg, Pennsylvania
Current Conditions -  °F | °C
As of 1:35 AM on Tuesday 21 Oct 2014 (Local Time) from KUNV Reporting Station
Drizzle Drizzle  
Wind Chill: 47°   Ceiling: 6000
Heat Index: 47°   Visibility: 10mi
Dew Point: 44°   Wind: 0mph
Humidity: 87%   Direction: NA
Pressure: 29.86"   Gusts: NA
Location:  40.94°N, 77.79°W
Report Text: KUNV 210535Z AUTO 00000KT 10SM -DZ OVC060 09/06 A2986 RMK AO2 T00850064
Loading
Personal Weather Stations






























Interactive Weather Map
Tropical Storm Tracking
New forecast layout! Learn more

10-Day Weather Forecast

Advertisements
Track Severe Weather on mobile